createdAt,value
2017-04-07T00:00:22.629Z,0
2017-04-07T00:01:03.079Z,0
2017-04-07T00:01:43.527Z,0
2017-04-07T00:02:23.983Z,0
2017-04-07T00:03:04.437Z,0
2017-04-07T00:03:44.912Z,0
2017-04-07T00:04:26.121Z,0
2017-04-07T00:05:06.581Z,0
2017-04-07T00:05:47.030Z,0
2017-04-07T00:06:27.488Z,0
2017-04-07T00:07:07.968Z,0
2017-04-07T00:07:48.399Z,0
2017-04-07T00:08:28.843Z,0
2017-04-07T00:09:09.274Z,0
2017-04-07T00:09:49.738Z,0
2017-04-07T00:10:30.214Z,0
2017-04-07T00:11:10.689Z,0
2017-04-07T00:11:51.153Z,0
2017-04-07T00:13:48.799Z,0
2017-04-07T00:14:29.315Z,0
2017-04-07T00:15:09.810Z,0
2017-04-07T00:15:50.288Z,0
2017-04-07T00:16:30.766Z,0
2017-04-07T00:18:58.741Z,0
2017-04-07T00:19:39.199Z,0
2017-04-07T00:20:19.656Z,0
2017-04-07T00:21:00.139Z,0
2017-04-07T00:21:40.621Z,0
2017-04-07T00:22:21.083Z,0
2017-04-07T00:23:01.525Z,0
2017-04-07T00:23:42.052Z,0
2017-04-07T00:24:22.513Z,0
2017-04-07T00:25:02.959Z,0
2017-04-07T00:25:43.432Z,0
2017-04-07T00:26:23.900Z,0
2017-04-07T00:27:04.382Z,0
2017-04-07T00:27:44.905Z,0
2017-04-07T00:28:25.374Z,0
2017-04-07T00:29:05.778Z,0
2017-04-07T00:29:46.211Z,0
2017-04-07T00:30:26.655Z,0
2017-04-07T00:31:07.090Z,0
2017-04-07T00:31:47.568Z,0
2017-04-07T00:32:28.018Z,0
2017-04-07T00:33:08.600Z,0
2017-04-07T00:33:49.044Z,0
2017-04-07T00:34:29.558Z,0
2017-04-07T00:36:42.306Z,0
2017-04-07T00:37:22.808Z,0
2017-04-07T00:38:03.285Z,0
2017-04-07T00:38:43.755Z,0
2017-04-07T00:39:24.161Z,0
2017-04-07T00:40:04.620Z,0
2017-04-07T00:40:45.025Z,0
2017-04-07T00:41:25.464Z,0
2017-04-07T00:43:43.352Z,0
2017-04-07T00:44:23.867Z,0
2017-04-07T00:46:56.899Z,0
2017-04-07T00:47:37.380Z,0
2017-04-07T00:48:17.795Z,0
2017-04-07T00:50:30.539Z,0
2017-04-07T00:51:11.003Z,0
2017-04-07T00:51:51.464Z,0
2017-04-07T00:52:31.928Z,0
2017-04-07T00:55:04.895Z,0
2017-04-07T00:55:45.358Z,0
2017-04-07T00:56:25.816Z,0
2017-04-07T00:57:07.090Z,0
2017-04-07T00:59:04.755Z,0
2017-04-07T00:59:45.191Z,0
2017-04-07T01:00:25.641Z,0
2017-04-07T01:01:06.110Z,0
2017-04-07T01:01:46.542Z,0
2017-04-07T01:02:27.003Z,0
2017-04-07T01:04:39.695Z,0
2017-04-07T01:05:20.191Z,0
2017-04-07T01:06:00.668Z,0
2017-04-07T01:06:41.123Z,0
2017-04-07T01:07:21.598Z,0
2017-04-07T01:08:02.067Z,0
2017-04-07T01:08:42.556Z,0
2017-04-07T01:09:23.046Z,0
2017-04-07T01:10:03.483Z,0
2017-04-07T01:10:43.955Z,0
2017-04-07T01:11:24.444Z,0
2017-04-07T01:12:04.896Z,0
2017-04-07T01:12:45.359Z,0
2017-04-07T01:13:25.905Z,0
2017-04-07T01:14:06.409Z,0
2017-04-07T01:14:46.847Z,0
2017-04-07T01:15:27.326Z,0
2017-04-07T01:16:07.831Z,0
2017-04-07T01:16:48.302Z,0
2017-04-07T01:17:28.818Z,0
2017-04-07T01:19:46.725Z,0
2017-04-07T01:20:27.099Z,0
2017-04-07T01:21:07.560Z,0
2017-04-07T01:23:40.510Z,0
2017-04-07T01:24:20.983Z,0
2017-04-07T01:25:01.465Z,0
2017-04-07T01:25:41.961Z,0
2017-04-07T01:26:22.395Z,0
2017-04-07T01:27:02.865Z,0
2017-04-07T01:27:43.359Z,0
2017-04-07T01:28:23.846Z,0
2017-04-07T01:29:04.323Z,0
2017-04-07T01:29:44.795Z,0
2017-04-07T01:30:25.318Z,0
2017-04-07T01:31:05.800Z,0
2017-04-07T01:31:46.269Z,0
2017-04-07T01:32:26.745Z,0
2017-04-07T01:33:07.242Z,0
2017-04-07T01:35:19.967Z,0
2017-04-07T01:36:00.440Z,0
2017-04-07T01:36:40.929Z,0
2017-04-07T01:37:21.398Z,0
2017-04-07T01:38:01.907Z,0
2017-04-07T01:38:42.415Z,0
2017-04-07T01:39:23.816Z,0
2017-04-07T01:40:04.276Z,0
2017-04-07T01:40:44.789Z,0
2017-04-07T01:41:25.236Z,0
2017-04-07T01:42:05.704Z,0
2017-04-07T01:42:46.215Z,0
2017-04-07T01:43:26.668Z,0
2017-04-07T01:44:07.142Z,0
2017-04-07T01:44:47.656Z,0
2017-04-07T01:45:28.169Z,0
2017-04-07T01:46:08.635Z,0
2017-04-07T01:46:49.169Z,0
2017-04-07T01:47:29.613Z,0
2017-04-07T01:48:10.015Z,0
2017-04-07T01:48:50.468Z,0
2017-04-07T01:49:30.937Z,0
2017-04-07T01:50:11.422Z,0
2017-04-07T01:50:51.918Z,0
2017-04-07T01:51:32.374Z,0
2017-04-07T01:52:12.779Z,0
2017-04-07T01:52:53.286Z,0
2017-04-07T01:53:33.730Z,0
2017-04-07T01:54:14.232Z,0
2017-04-07T01:54:54.661Z,0
2017-04-07T01:55:35.112Z,0
2017-04-07T01:56:15.518Z,0
2017-04-07T01:56:55.976Z,0
2017-04-07T01:57:36.427Z,0
2017-04-07T01:58:16.858Z,0
2017-04-07T01:58:57.311Z,0
2017-04-07T01:59:37.754Z,0
2017-04-07T02:00:18.269Z,0
2017-04-07T02:00:58.669Z,0
2017-04-07T02:01:39.125Z,0
2017-04-07T02:02:19.583Z,0
2017-04-07T02:03:00.039Z,0
2017-04-07T02:03:40.530Z,0
2017-04-07T02:04:20.983Z,0
2017-04-07T02:05:01.406Z,0
2017-04-07T02:05:41.844Z,0
2017-04-07T02:06:22.339Z,0
2017-04-07T02:07:02.810Z,0
2017-04-07T02:07:43.257Z,0
2017-04-07T02:08:23.717Z,0
2017-04-07T02:09:04.179Z,0
2017-04-07T02:11:32.110Z,0
2017-04-07T02:12:12.578Z,0
2017-04-07T02:12:53.035Z,0
2017-04-07T02:13:33.537Z,0
2017-04-07T02:14:13.973Z,0
2017-04-07T02:14:54.459Z,0
2017-04-07T02:15:34.955Z,0
2017-04-07T02:16:15.422Z,0
2017-04-07T02:18:48.422Z,0
2017-04-07T02:19:28.828Z,0
2017-04-07T02:20:09.321Z,0
2017-04-07T02:20:49.783Z,0
2017-04-07T02:21:30.240Z,0
2017-04-07T02:23:27.843Z,0
2017-04-07T02:24:08.324Z,0
2017-04-07T02:24:48.795Z,0
2017-04-07T02:25:29.263Z,0
2017-04-07T02:26:09.695Z,0
2017-04-07T02:26:50.205Z,0
2017-04-07T02:27:30.667Z,0
2017-04-07T02:28:11.138Z,0
2017-04-07T02:28:51.636Z,0
2017-04-07T02:29:32.109Z,0
2017-04-07T02:30:12.574Z,0
2017-04-07T02:30:53.050Z,0
2017-04-07T02:31:33.514Z,0
2017-04-07T02:33:31.257Z,0
2017-04-07T02:34:11.661Z,0
2017-04-07T02:34:52.091Z,0
2017-04-07T02:35:32.559Z,0
2017-04-07T02:36:13.058Z,0
2017-04-07T02:36:53.461Z,0
2017-04-07T02:37:33.950Z,0
2017-04-07T02:38:14.380Z,0
2017-04-07T02:38:54.842Z,0
2017-04-07T02:39:35.289Z,0
2017-04-07T02:40:15.752Z,0
2017-04-07T02:40:56.193Z,0
2017-04-07T02:41:36.647Z,0
2017-04-07T02:43:49.356Z,0
2017-04-07T02:44:29.912Z,0
2017-04-07T02:45:10.319Z,0
2017-04-07T02:45:50.767Z,0
2017-04-07T02:46:31.204Z,0
2017-04-07T02:47:11.609Z,0
2017-04-07T02:47:52.105Z,0
2017-04-07T02:48:32.518Z,0
2017-04-07T02:50:30.183Z,0
2017-04-07T02:51:10.663Z,0
2017-04-07T02:51:51.147Z,0
2017-04-07T02:52:31.630Z,0
2017-04-07T02:53:12.126Z,0
2017-04-07T02:53:52.541Z,0
2017-04-07T02:54:32.981Z,0
2017-04-07T02:55:13.413Z,0
2017-04-07T02:55:53.873Z,0
2017-04-07T02:56:34.415Z,0
2017-04-07T02:57:14.871Z,0
2017-04-07T02:57:55.342Z,0
2017-04-07T02:58:35.759Z,0
2017-04-07T02:59:16.254Z,0
2017-04-07T02:59:56.715Z,0
2017-04-07T03:01:54.390Z,0
2017-04-07T03:02:34.848Z,0
2017-04-07T03:03:15.309Z,0
2017-04-07T03:03:55.778Z,0
2017-04-07T03:04:36.264Z,0
2017-04-07T03:05:16.743Z,0
2017-04-07T03:05:57.252Z,0
2017-04-07T03:06:37.752Z,0
2017-04-07T03:07:18.206Z,0
2017-04-07T03:07:58.684Z,0
2017-04-07T03:08:39.176Z,0
2017-04-07T03:09:19.639Z,0
2017-04-07T03:10:00.142Z,0
2017-04-07T03:10:40.592Z,0
2017-04-07T03:11:21.051Z,0
2017-04-07T03:12:01.477Z,0
2017-04-07T03:12:41.940Z,0
2017-04-07T03:14:39.588Z,0
2017-04-07T03:15:20.114Z,0
2017-04-07T03:16:00.486Z,0
2017-04-07T03:16:40.957Z,0
2017-04-07T03:17:21.409Z,0
2017-04-07T03:18:01.866Z,0
2017-04-07T03:18:42.310Z,0
2017-04-07T03:19:22.778Z,0
2017-04-07T03:20:03.272Z,0
2017-04-07T03:20:43.685Z,0
2017-04-07T03:21:24.132Z,0
2017-04-07T03:22:04.606Z,0
2017-04-07T03:22:45.058Z,0
2017-04-07T03:23:25.535Z,0
2017-04-07T03:24:06.000Z,0
2017-04-07T03:26:33.924Z,0
2017-04-07T03:27:14.353Z,0
2017-04-07T03:27:54.849Z,0
2017-04-07T03:28:35.321Z,0
2017-04-07T03:29:15.779Z,0
2017-04-07T03:29:56.235Z,0
2017-04-07T03:30:36.700Z,0
2017-04-07T03:31:17.141Z,0
2017-04-07T03:31:57.605Z,0
2017-04-07T03:32:38.053Z,0
2017-04-07T03:35:11.080Z,0
2017-04-07T03:35:51.531Z,0
2017-04-07T03:36:31.983Z,0
2017-04-07T03:37:12.422Z,0
2017-04-07T03:37:52.874Z,0
2017-04-07T03:38:33.326Z,0
2017-04-07T03:39:13.799Z,0
2017-04-07T03:39:54.336Z,0
2017-04-07T03:40:34.751Z,0
2017-04-07T03:41:15.201Z,0
2017-04-07T03:41:55.629Z,0
2017-04-07T03:42:36.043Z,0
2017-04-07T03:43:16.471Z,0
2017-04-07T03:43:56.945Z,0
2017-04-07T03:44:37.392Z,0
2017-04-07T03:45:17.844Z,0
2017-04-07T03:45:58.319Z,0
2017-04-07T03:46:38.821Z,0
2017-04-07T03:49:06.830Z,0
2017-04-07T03:49:47.250Z,0
2017-04-07T03:50:27.744Z,0
2017-04-07T03:51:08.242Z,0
2017-04-07T03:51:48.665Z,0
2017-04-07T03:52:29.150Z,0
2017-04-07T03:53:09.648Z,0
2017-04-07T03:53:50.076Z,0
2017-04-07T03:54:30.567Z,0
2017-04-07T03:55:11.047Z,0
2017-04-07T03:55:51.528Z,0
2017-04-07T03:56:31.979Z,0
2017-04-07T03:57:12.417Z,0
2017-04-07T03:57:52.843Z,0
2017-04-07T03:58:33.342Z,0
2017-04-07T04:01:06.407Z,0
2017-04-07T04:01:46.893Z,0
2017-04-07T04:02:27.387Z,0
2017-04-07T04:03:07.864Z,0
2017-04-07T04:03:48.329Z,0
2017-04-07T04:04:28.803Z,0
2017-04-07T04:05:09.263Z,0
2017-04-07T04:05:49.786Z,0
2017-04-07T04:06:30.201Z,0
2017-04-07T04:07:10.644Z,0
2017-04-07T04:07:51.109Z,0
2017-04-07T04:08:31.570Z,0
2017-04-07T04:09:12.014Z,0
2017-04-07T04:09:52.473Z,0
2017-04-07T04:10:32.936Z,0
2017-04-07T04:13:06.717Z,0
2017-04-07T04:13:47.144Z,0
2017-04-07T04:14:27.593Z,0
2017-04-07T04:15:08.050Z,0
2017-04-07T04:17:41.005Z,0
2017-04-07T04:18:21.459Z,0
2017-04-07T04:19:01.912Z,0
2017-04-07T04:19:42.377Z,0
2017-04-07T04:20:22.814Z,0
2017-04-07T04:21:03.290Z,0
2017-04-07T04:21:43.740Z,0
2017-04-07T04:22:24.185Z,4
2017-04-07T04:23:04.597Z,4
2017-04-07T04:23:45.052Z,4
2017-04-07T04:24:25.505Z,4
2017-04-07T04:25:05.949Z,4
2017-04-07T04:27:03.643Z,4
2017-04-07T04:27:44.089Z,4
2017-04-07T04:28:24.617Z,4
2017-04-07T04:29:05.073Z,4
2017-04-07T04:29:45.543Z,8
2017-04-07T04:30:26.001Z,8
2017-04-07T04:31:06.443Z,8
2017-04-07T04:31:46.893Z,8
2017-04-07T04:32:27.372Z,12
2017-04-07T04:33:07.863Z,12
2017-04-07T04:33:48.285Z,12
2017-04-07T04:34:28.712Z,16
2017-04-07T04:35:09.131Z,20
2017-04-07T04:35:49.603Z,20
2017-04-07T04:36:30.053Z,24
2017-04-07T04:37:10.492Z,28
2017-04-07T04:37:50.939Z,28
2017-04-07T04:38:31.388Z,32
2017-04-07T04:39:12.675Z,36
2017-04-07T04:39:53.137Z,40
2017-04-07T04:40:33.674Z,44
2017-04-07T04:41:14.046Z,48
2017-04-07T04:41:54.487Z,56
2017-04-07T04:42:34.950Z,56
2017-04-07T04:44:32.619Z,76
2017-04-07T04:45:13.093Z,80
2017-04-07T04:45:53.601Z,84
2017-04-07T04:46:34.109Z,92
2017-04-07T04:47:14.516Z,100
2017-04-07T04:47:55.019Z,108
2017-04-07T04:48:35.496Z,120
2017-04-07T04:51:08.512Z,160
2017-04-07T04:51:48.973Z,172
2017-04-07T04:52:29.449Z,184
2017-04-07T04:53:09.943Z,200
2017-04-07T04:53:50.420Z,208
2017-04-07T04:54:31.488Z,228
2017-04-07T04:55:11.920Z,240
2017-04-07T04:55:52.408Z,256
2017-04-07T04:56:32.884Z,272
2017-04-07T04:57:13.297Z,288
2017-04-07T04:57:53.765Z,304
2017-04-07T04:58:34.273Z,320
2017-04-07T04:59:14.743Z,336
2017-04-07T04:59:55.197Z,356
2017-04-07T05:00:35.659Z,380
2017-04-07T05:01:16.111Z,396
2017-04-07T05:01:56.559Z,420
2017-04-07T05:02:37.039Z,440
2017-04-07T05:03:17.487Z,460
2017-04-07T05:03:57.942Z,484
2017-04-07T05:04:38.392Z,508
2017-04-07T05:05:18.864Z,528
2017-04-07T05:05:59.306Z,556
2017-04-07T05:06:39.782Z,584
2017-04-07T05:07:20.230Z,612
2017-04-07T05:08:00.683Z,644
2017-04-07T05:10:18.577Z,756
2017-04-07T05:10:58.945Z,792
2017-04-07T05:11:39.406Z,824
2017-04-07T05:12:19.893Z,856
2017-04-07T05:13:00.382Z,892
2017-04-07T05:13:40.840Z,924
2017-04-07T05:14:21.341Z,956
2017-04-07T05:15:01.861Z,988
2017-04-07T05:15:42.324Z,1020
2017-04-07T05:16:22.770Z,1052
2017-04-07T05:17:03.236Z,1080
2017-04-07T05:17:43.677Z,1108
2017-04-07T05:18:24.150Z,1136
2017-04-07T05:19:04.600Z,1172
2017-04-07T05:19:45.014Z,1200
2017-04-07T05:20:25.473Z,1228
2017-04-07T05:21:05.980Z,1252
2017-04-07T05:21:47.164Z,1280
2017-04-07T05:22:27.621Z,1316
2017-04-07T05:23:08.077Z,1356
2017-04-07T05:23:48.543Z,1392
2017-04-07T05:24:28.962Z,1432
2017-04-07T05:25:09.411Z,1472
2017-04-07T05:25:49.858Z,1512
2017-04-07T05:26:30.322Z,1556
2017-04-07T05:27:10.776Z,1600
2017-04-07T05:27:51.248Z,1648
2017-04-07T05:28:31.661Z,1692
2017-04-07T05:29:12.108Z,1732
2017-04-07T05:29:52.528Z,1776
2017-04-07T05:30:33.008Z,1816
2017-04-07T05:31:13.474Z,1860
2017-04-07T05:31:53.932Z,1916
2017-04-07T05:32:34.397Z,1964
2017-04-07T05:33:14.845Z,2016
2017-04-07T05:33:55.304Z,2068
2017-04-07T05:34:35.853Z,2112
2017-04-07T05:35:16.275Z,2172
2017-04-07T05:35:56.692Z,2224
2017-04-07T05:36:37.146Z,2272
2017-04-07T05:37:17.596Z,2312
2017-04-07T05:37:58.059Z,2352
2017-04-07T05:38:38.518Z,2392
2017-04-07T05:40:36.143Z,2476
2017-04-07T05:41:16.597Z,2492
2017-04-07T05:41:57.052Z,2512
2017-04-07T05:42:37.530Z,2560
2017-04-07T05:44:50.339Z,2784
2017-04-07T05:45:30.772Z,2852
2017-04-07T05:46:11.255Z,2900
2017-04-07T05:46:51.730Z,2960
2017-04-07T05:47:32.207Z,3020
2017-04-07T05:48:12.684Z,3088
2017-04-07T05:48:53.155Z,3164
2017-04-07T05:49:33.671Z,3216
2017-04-07T05:50:14.095Z,3276
2017-04-07T05:50:54.501Z,3344
2017-04-07T05:53:07.180Z,3872
2017-04-07T05:53:47.662Z,3992
2017-04-07T05:54:28.101Z,4032
2017-04-07T05:56:25.729Z,4116
2017-04-07T05:57:06.224Z,4140
2017-04-07T05:59:34.101Z,4584
2017-04-07T06:00:14.579Z,4688
2017-04-07T06:00:55.105Z,4780
2017-04-07T06:01:35.548Z,4860
2017-04-07T06:02:16.055Z,4924
2017-04-07T06:04:33.843Z,5060
2017-04-07T06:05:14.283Z,5032
2017-04-07T06:05:54.773Z,5036
2017-04-07T06:06:35.227Z,4912
2017-04-07T06:07:15.695Z,4820
2017-04-07T06:07:56.204Z,4860
2017-04-07T06:08:36.651Z,4916
2017-04-07T06:09:17.223Z,4964
2017-04-07T06:09:57.702Z,4936
2017-04-07T06:10:38.139Z,4968
2017-04-07T06:11:18.592Z,4980
2017-04-07T06:11:59.184Z,5028
2017-04-07T06:12:39.608Z,5068
2017-04-07T06:13:20.069Z,5164
2017-04-07T06:14:00.533Z,5308
2017-04-07T06:14:41.017Z,5348
2017-04-07T06:15:21.403Z,5248
2017-04-07T06:16:01.834Z,5432
2017-04-07T06:16:42.315Z,5576
2017-04-07T06:17:22.752Z,5876
2017-04-07T06:18:03.262Z,6012
2017-04-07T06:18:43.725Z,6004
2017-04-07T06:19:24.195Z,5940
2017-04-07T06:20:04.704Z,6004
2017-04-07T06:20:45.188Z,6096
2017-04-07T06:21:25.606Z,6268
2017-04-07T06:23:23.303Z,6328
2017-04-07T06:24:03.807Z,5932
2017-04-07T06:26:31.756Z,5248
2017-04-07T06:27:12.224Z,5320
2017-04-07T06:27:52.676Z,5396
2017-04-07T06:28:33.148Z,5456
2017-04-07T06:29:13.588Z,5480
2017-04-07T06:29:54.071Z,5512
2017-04-07T06:30:34.571Z,5556
2017-04-07T06:32:47.338Z,6000
2017-04-07T06:33:27.791Z,6120
2017-04-07T06:34:08.273Z,6236
2017-04-07T06:34:48.738Z,6384
2017-04-07T06:35:29.207Z,6548
2017-04-07T06:36:09.655Z,6816
2017-04-07T06:36:50.145Z,6904
2017-04-07T06:42:34.647Z,7168
2017-04-07T06:43:15.121Z,7404
2017-04-07T06:45:33.078Z,7880
2017-04-07T06:46:13.519Z,7908
2017-04-07T06:46:53.972Z,7908
2017-04-07T06:47:34.456Z,7816
2017-04-07T06:48:14.943Z,7984
2017-04-07T06:48:55.418Z,8452
2017-04-07T06:49:35.880Z,8556
2017-04-07T06:50:16.358Z,8204
2017-04-07T06:50:56.782Z,7836
2017-04-07T06:51:37.272Z,7692
2017-04-07T06:52:17.752Z,8120
2017-04-07T06:52:58.240Z,8208
2017-04-07T06:55:16.558Z,9984
2017-04-07T06:55:56.959Z,9744
2017-04-07T06:56:37.474Z,10048
2017-04-07T06:57:17.941Z,10280
2017-04-07T06:57:58.562Z,10632
2017-04-07T06:58:38.932Z,10684
2017-04-07T06:59:19.409Z,10560
2017-04-07T06:59:59.815Z,10884
2017-04-07T07:00:40.321Z,11664
2017-04-07T07:01:20.758Z,12084
2017-04-07T07:02:01.203Z,12336
2017-04-07T07:02:41.755Z,12728
2017-04-07T07:03:22.210Z,12508
2017-04-07T07:04:02.635Z,12504
2017-04-07T07:04:43.109Z,12320
2017-04-07T07:05:23.585Z,12708
2017-04-07T07:06:04.155Z,13568
2017-04-07T07:06:44.590Z,13696
2017-04-07T07:07:30.770Z,13988
2017-04-07T07:08:11.055Z,14536
2017-04-07T07:08:52.198Z,15000
2017-04-07T07:09:33.589Z,15116
2017-04-07T07:10:14.052Z,15272
2017-04-07T07:10:54.540Z,15220
2017-04-07T07:11:34.980Z,15368
2017-04-07T07:12:15.501Z,15512
2017-04-07T07:12:55.969Z,15728
2017-04-07T07:13:36.450Z,15644
2017-04-07T07:14:16.934Z,15680
2017-04-07T07:14:57.431Z,15828
2017-04-07T07:15:37.938Z,15652
2017-04-07T07:16:18.315Z,15564
2017-04-07T07:16:58.737Z,14908
2017-04-07T07:17:39.256Z,15592
2017-04-07T07:18:19.656Z,15856
2017-04-07T07:19:00.117Z,16052
2017-04-07T07:19:41.145Z,16172
2017-04-07T07:20:21.561Z,15908
2017-04-07T07:21:02.096Z,15868
2017-04-07T07:21:42.560Z,16800
2017-04-07T07:22:23.022Z,16992
2017-04-07T07:23:03.501Z,17184
2017-04-07T07:23:45.673Z,16864
2017-04-07T07:24:26.229Z,17920
2017-04-07T07:25:06.751Z,18464
2017-04-07T07:25:48.332Z,18912
2017-04-07T07:26:28.832Z,19232
2017-04-07T07:27:09.293Z,19616
2017-04-07T07:27:49.777Z,20064
2017-04-07T07:28:30.521Z,20320
2017-04-07T07:29:11.704Z,20544
2017-04-07T07:29:52.454Z,20640
2017-04-07T07:30:33.010Z,20832
2017-04-07T07:31:14.519Z,20960
2017-04-07T07:31:58.219Z,20928
2017-04-07T07:32:48.438Z,20960
2017-04-07T07:33:31.771Z,20896
2017-04-07T07:34:12.394Z,20800
2017-04-07T07:34:52.852Z,20448
2017-04-07T07:35:33.302Z,20256
2017-04-07T07:36:15.187Z,20192
2017-04-07T07:36:56.630Z,20128
2017-04-07T07:37:37.504Z,19968
2017-04-07T07:38:18.863Z,19648
2017-04-07T07:39:02.063Z,19776
2017-04-07T07:39:42.818Z,22624
2017-04-07T07:40:23.198Z,33440
2017-04-07T07:41:03.856Z,40704
2017-04-07T07:41:44.479Z,43264
2017-04-07T07:42:25.386Z,35936
2017-04-07T07:43:05.870Z,30112
2017-04-07T07:43:47.417Z,23584
2017-04-07T07:44:27.882Z,24352
2017-04-07T07:45:11.611Z,33920
2017-04-07T07:45:53.778Z,42272
2017-04-07T07:46:43.682Z,39328
2017-04-07T07:47:29.779Z,47552
2017-04-07T07:48:11.249Z,47040
2017-04-07T07:48:54.994Z,46528
2017-04-07T07:49:35.446Z,44064
2017-04-07T07:50:16.444Z,42880
2017-04-07T07:50:56.799Z,42592
2017-04-07T07:51:38.484Z,42176
2017-04-07T07:52:21.196Z,41120
2017-04-07T07:54:42.444Z,42752
2017-04-07T07:55:22.874Z,43392
2017-04-07T07:56:03.350Z,44128
2017-04-07T07:56:43.834Z,43296
2017-04-07T07:57:24.340Z,42176
2017-04-07T07:58:04.979Z,41536
2017-04-07T07:58:45.652Z,42112
2017-04-07T07:59:26.186Z,43552
2017-04-07T08:00:06.657Z,43936
2017-04-07T08:00:47.099Z,45408
2017-04-07T08:01:27.607Z,40608
2017-04-07T08:02:08.050Z,32448
2017-04-07T08:02:48.521Z,23712
2017-04-07T08:03:29.035Z,19136
2017-04-07T08:04:09.595Z,18560
2017-04-07T08:04:51.022Z,18688
2017-04-07T08:05:31.536Z,18752
2017-04-07T08:06:12.040Z,18944
2017-04-07T08:06:52.564Z,19072
2017-04-07T08:07:33.016Z,18976
2017-04-07T08:09:50.877Z,18848
2017-04-07T08:10:31.411Z,19200
2017-04-07T08:11:11.939Z,19552
2017-04-07T08:11:52.433Z,20192
2017-04-07T08:12:32.908Z,20704
2017-04-07T08:13:13.406Z,21152
2017-04-07T08:13:53.905Z,21888
2017-04-07T08:14:34.401Z,29216
2017-04-07T08:15:15.185Z,40576
2017-04-07T08:15:55.701Z,50752
2017-04-07T08:16:36.177Z,55936
2017-04-07T08:17:16.654Z,57216
2017-04-07T08:17:57.187Z,57760
2017-04-07T08:18:37.690Z,58432
2017-04-07T08:19:18.198Z,58784
2017-04-07T08:19:58.658Z,58784
2017-04-07T08:20:39.208Z,58496
2017-04-07T08:22:51.959Z,58400
2017-04-07T08:23:32.414Z,59872
2017-04-07T08:24:12.995Z,60608
2017-04-07T08:24:53.442Z,60384
2017-04-07T08:26:51.090Z,61440
2017-04-07T08:27:31.590Z,61728
2017-04-07T08:29:29.253Z,61216
2017-04-07T08:30:09.822Z,62880
2017-04-07T08:30:50.346Z,65184
2017-04-07T08:31:30.943Z,64672
2017-04-07T08:32:11.396Z,64736
2017-04-07T08:32:51.979Z,65472
2017-04-07T08:33:32.434Z,66848
2017-04-07T08:34:12.893Z,66112
2017-04-07T08:34:53.517Z,64928
2017-04-07T08:35:34.113Z,65408
2017-04-07T08:36:14.593Z,64992
2017-04-07T08:36:55.248Z,67232
2017-04-07T08:37:35.782Z,70432
2017-04-07T08:38:16.251Z,71584
2017-04-07T08:38:56.823Z,72352
2017-04-07T08:39:37.371Z,72960
2017-04-07T08:40:17.959Z,74848
2017-04-07T08:40:58.552Z,74080
2017-04-07T08:41:39.089Z,72288
2017-04-07T08:42:19.570Z,71456
2017-04-07T08:43:00.088Z,74336
2017-04-07T08:43:40.753Z,75648
2017-04-07T08:44:21.245Z,75648
2017-04-07T08:45:01.768Z,75584
2017-04-07T08:45:42.331Z,74656
2017-04-07T08:46:22.802Z,74688
2017-04-07T08:47:03.294Z,74688
2017-04-07T08:47:43.789Z,73760
2017-04-07T08:48:24.285Z,76032
2017-04-07T08:49:04.760Z,78272
2017-04-07T08:49:45.264Z,81152
2017-04-07T08:50:25.810Z,81312
2017-04-07T08:51:06.383Z,83296
2017-04-07T08:51:46.812Z,85120
2017-04-07T08:52:27.404Z,85408
2017-04-07T08:54:55.541Z,85824
2017-04-07T08:55:36.084Z,83680
2017-04-07T08:56:16.603Z,81056
2017-04-07T08:56:57.308Z,77088
2017-04-07T08:57:37.861Z,73952
2017-04-07T08:58:18.362Z,77184
2017-04-07T08:58:58.868Z,69984
2017-04-07T08:59:39.448Z,53376
2017-04-07T09:00:20.036Z,32672
2017-04-07T09:01:00.573Z,24960
2017-04-07T09:01:41.055Z,24512
2017-04-07T09:02:21.588Z,24160
2017-04-07T09:03:02.039Z,23904
2017-04-07T09:03:42.523Z,23552
2017-04-07T09:04:23.075Z,23488
2017-04-07T09:05:03.729Z,23872
2017-04-07T09:05:44.266Z,26688
2017-04-07T09:06:24.753Z,30080
2017-04-07T09:07:05.322Z,32832
2017-04-07T09:07:45.792Z,37120
2017-04-07T09:08:26.318Z,54720
2017-04-07T09:09:07.060Z,75392
2017-04-07T09:09:47.730Z,88736
2017-04-07T09:10:28.992Z,89568
2017-04-07T09:13:02.121Z,92832
2017-04-07T09:13:42.588Z,91712
2017-04-07T09:14:23.086Z,92160
2017-04-07T09:15:03.550Z,93408
2017-04-07T09:15:44.067Z,95584
2017-04-07T09:16:24.547Z,96896
2017-04-07T09:17:05.073Z,96544
2017-04-07T09:17:45.608Z,95200
2017-04-07T09:18:26.095Z,96448
2017-04-07T09:20:54.277Z,93184
2017-04-07T09:21:34.679Z,93344
2017-04-07T09:22:15.179Z,94080
2017-04-07T09:22:55.899Z,92896
2017-04-07T09:23:36.423Z,87904
2017-04-07T09:24:16.924Z,87744
2017-04-07T09:24:57.442Z,88832
2017-04-07T09:29:03.036Z,94240
2017-04-07T09:29:43.580Z,92800
2017-04-07T09:30:24.120Z,87872
2017-04-07T09:31:04.617Z,86304
2017-04-07T09:31:45.985Z,82432
2017-04-07T09:32:26.637Z,81888
2017-04-07T09:33:07.241Z,86176
2017-04-07T09:33:49.311Z,82880
2017-04-07T09:34:29.743Z,84128
2017-04-07T09:36:42.467Z,78720
2017-04-07T09:37:22.949Z,81664
2017-04-07T09:38:03.416Z,79648
2017-04-07T09:38:43.969Z,80960
2017-04-07T09:39:24.437Z,82432
2017-04-07T09:40:05.275Z,84128
2017-04-07T09:40:45.654Z,82080
2017-04-07T09:41:26.107Z,81568
2017-04-07T09:42:06.578Z,81280
2017-04-07T09:42:47.038Z,82560
2017-04-07T09:45:20.260Z,61088
2017-04-07T09:46:00.819Z,41088
2017-04-07T09:47:58.528Z,30144
2017-04-07T09:48:39.307Z,29312
2017-04-07T09:49:19.811Z,28224
2017-04-07T09:50:00.293Z,26944
2017-04-07T09:50:40.755Z,26976
2017-04-07T09:51:21.326Z,26464
2017-04-07T09:52:01.849Z,25536
2017-04-07T09:52:42.380Z,24192
2017-04-07T09:55:15.746Z,21376
2017-04-07T09:57:28.536Z,21664
2017-04-07T09:58:09.044Z,21632
2017-04-07T09:58:49.560Z,21792
2017-04-07T09:59:30.037Z,22048
2017-04-07T10:00:10.534Z,22304
2017-04-07T10:00:51.084Z,22496
2017-04-07T10:03:19.111Z,23488
2017-04-07T10:03:59.571Z,29184
2017-04-07T10:04:40.148Z,51808
2017-04-07T10:05:20.660Z,77152
2017-04-07T10:06:01.184Z,87328
2017-04-07T10:06:41.714Z,87264
2017-04-07T10:07:22.152Z,83296
2017-04-07T10:08:02.716Z,78752
2017-04-07T10:08:43.390Z,81952
2017-04-07T10:11:11.790Z,84480
2017-04-07T10:11:52.272Z,83680
2017-04-07T10:12:32.733Z,82688
2017-04-07T10:14:50.638Z,84256
2017-04-07T10:15:31.139Z,83968
2017-04-07T10:16:11.611Z,82688
2017-04-07T10:18:09.334Z,84576
2017-04-07T10:18:50.245Z,83904
2017-04-07T10:19:30.703Z,79648
2017-04-07T10:20:11.169Z,83936
2017-04-07T10:22:08.902Z,88288
2017-04-07T10:22:49.388Z,84960
2017-04-07T10:23:29.921Z,83360
2017-04-07T10:24:10.464Z,85824
2017-04-07T10:24:50.925Z,85024
2017-04-07T10:25:31.414Z,85280
2017-04-07T10:26:11.908Z,91008
2017-04-07T10:26:52.771Z,89408
2017-04-07T10:27:33.979Z,88192
2017-04-07T10:28:14.518Z,88384
2017-04-07T10:28:54.970Z,91872
2017-04-07T10:29:35.544Z,91808
2017-04-07T10:30:16.095Z,93056
2017-04-07T10:30:56.705Z,83776
2017-04-07T10:31:37.324Z,59456
2017-04-07T10:32:17.944Z,37056
2017-04-07T10:32:58.565Z,31168
2017-04-07T10:35:18.050Z,29792
2017-04-07T10:35:58.821Z,30240
2017-04-07T10:36:39.398Z,30304
2017-04-07T10:37:20.294Z,30048
2017-04-07T10:38:01.893Z,30656
2017-04-07T10:38:46.160Z,31424
2017-04-07T10:39:26.713Z,40160
2017-04-07T10:40:08.689Z,65216
2017-04-07T10:40:49.367Z,88384
2017-04-07T10:41:34.405Z,93280
2017-04-07T10:42:16.488Z,90272
2017-04-07T10:42:57.402Z,91840
2017-04-07T10:43:38.771Z,95200
2017-04-07T10:44:19.860Z,93280
2017-04-07T10:45:00.825Z,89664
2017-04-07T10:45:44.432Z,92672
2017-04-07T10:46:25.175Z,92416
2017-04-07T10:47:06.276Z,94400
2017-04-07T10:47:47.179Z,92000
2017-04-07T10:48:27.988Z,99552
2017-04-07T10:49:09.592Z,99968
2017-04-07T10:49:50.514Z,96864
2017-04-07T10:50:31.157Z,102240
2017-04-07T10:51:12.152Z,102848
2017-04-07T10:51:55.675Z,104032
2017-04-07T10:52:36.154Z,103936
2017-04-07T10:53:17.706Z,100032
2017-04-07T10:53:58.696Z,101408
2017-04-07T10:54:42.497Z,102240
2017-04-07T10:55:23.423Z,103104
2017-04-07T10:56:04.339Z,102240
2017-04-07T10:56:45.774Z,100768
2017-04-07T10:57:26.431Z,99008
2017-04-07T10:58:07.810Z,95776
2017-04-07T10:58:48.399Z,92544
2017-04-07T10:59:30.152Z,93728
2017-04-07T11:00:10.702Z,94560
2017-04-07T11:00:51.177Z,97728
2017-04-07T11:03:24.507Z,102880
2017-04-07T11:04:09.565Z,100960